createdAt,value
2022-09-01T00:00:34.846Z,100.00
2022-09-01T00:03:03.099Z,100.00
2022-09-01T00:05:33.141Z,100.00
2022-09-01T00:08:01.466Z,100.00
2022-09-01T00:10:29.524Z,100.00
2022-09-01T00:12:57.739Z,100.00
2022-09-01T00:15:27.796Z,100.00
2022-09-01T00:17:55.843Z,100.00
2022-09-01T00:20:24.009Z,100.00
2022-09-01T00:22:52.119Z,100.00
2022-09-01T00:25:21.135Z,100.00
2022-09-01T00:27:49.717Z,100.00
2022-09-01T00:30:18.266Z,100.00
2022-09-01T00:32:48.613Z,100.00
2022-09-01T00:35:18.904Z,100.00
2022-09-01T00:37:47.006Z,100.00
2022-09-01T00:40:17.650Z,100.00
2022-09-01T00:42:48.959Z,100.00
2022-09-01T00:45:17.213Z,100.00
2022-09-01T00:47:47.095Z,100.00
2022-09-01T00:50:19.964Z,100.00
2022-09-01T00:52:52.664Z,100.00
2022-09-01T00:55:26.584Z,100.00
2022-09-01T00:57:55.081Z,100.00
2022-09-01T01:00:26.008Z,100.00
2022-09-01T01:02:56.981Z,100.00
2022-09-01T01:05:27.974Z,100.00
2022-09-01T01:07:57.183Z,100.00
2022-09-01T01:10:26.777Z,100.00
2022-09-01T01:12:55.079Z,100.00
2022-09-01T01:15:23.503Z,100.00
2022-09-01T01:17:51.682Z,100.00
2022-09-01T01:20:44.270Z,100.00
2022-09-01T01:23:20.867Z,100.00
2022-09-01T01:25:53.854Z,100.00
2022-09-01T01:28:24.632Z,100.00
2022-09-01T01:30:56.424Z,100.00
2022-09-01T01:47:58.649Z,100.00
2022-09-01T01:50:35.724Z,100.00
2022-09-01T01:53:11.019Z,100.00
2022-09-01T01:55:41.837Z,100.00
2022-09-01T01:58:12.365Z,100.00
2022-09-01T02:00:47.362Z,100.00
2022-09-01T02:03:38.453Z,100.00
2022-09-01T02:06:09.708Z,100.00
2022-09-01T02:08:40.820Z,100.00
2022-09-01T02:11:09.846Z,100.00
2022-09-01T02:13:37.984Z,100.00
2022-09-01T02:16:12.258Z,100.00
2022-09-01T02:18:44.407Z,100.00
2022-09-01T02:21:18.443Z,100.00
2022-09-01T02:23:49.652Z,100.00
2022-09-01T02:26:19.117Z,100.00
2022-09-01T02:28:55.743Z,100.00
2022-09-01T02:31:25.223Z,100.00
2022-09-01T02:33:55.413Z,100.00
2022-09-01T02:36:25.364Z,100.00
2022-09-01T02:38:56.756Z,100.00
2022-09-01T02:41:27.254Z,100.00
2022-09-01T02:43:55.380Z,100.00
2022-09-01T02:46:24.379Z,100.00
2022-09-01T02:48:54.639Z,100.00
2022-09-01T02:51:26.219Z,100.00
2022-09-01T02:53:55.116Z,100.00
2022-09-01T02:56:25.959Z,100.00
2022-09-01T02:58:54.947Z,100.00
2022-09-01T03:01:25.519Z,100.00
2022-09-01T03:03:57.499Z,100.00
2022-09-01T03:06:25.987Z,100.00
2022-09-01T03:08:59.682Z,100.00
2022-09-01T03:11:30.093Z,100.00
2022-09-01T03:13:58.689Z,100.00
2022-09-01T03:16:27.181Z,100.00
2022-09-01T03:18:57.223Z,100.00
2022-09-01T03:21:25.722Z,100.00
2022-09-01T03:23:54.323Z,100.00
2022-09-01T03:26:23.797Z,100.00
2022-09-01T03:28:53.165Z,100.00
2022-09-01T03:31:22.218Z,100.00
2022-09-01T03:33:51.108Z,100.00
2022-09-01T03:36:20.758Z,100.00
2022-09-01T03:38:51.412Z,100.00
2022-09-01T03:41:22.683Z,100.00
2022-09-01T03:43:51.292Z,100.00
2022-09-01T03:46:21.604Z,100.00
2022-09-01T03:48:51.783Z,100.00
2022-09-01T03:51:23.253Z,100.00
2022-09-01T03:53:55.130Z,100.00
2022-09-01T03:56:27.035Z,100.00
2022-09-01T03:58:57.055Z,100.00
2022-09-01T04:01:26.682Z,100.00
2022-09-01T04:03:55.213Z,100.00
2022-09-01T04:06:26.038Z,100.00
2022-09-01T04:08:57.823Z,100.00
2022-09-01T04:11:26.470Z,100.00
2022-09-01T04:13:54.532Z,100.00
2022-09-01T04:16:42.479Z,100.00
2022-09-01T04:19:20.451Z,100.00
2022-09-01T04:21:51.770Z,100.00
2022-09-01T04:24:20.310Z,100.00
2022-09-01T04:26:49.762Z,100.00
2022-09-01T04:29:19.796Z,100.00
2022-09-01T04:31:52.150Z,100.00
2022-09-01T04:34:22.646Z,100.00
2022-09-01T04:36:55.257Z,100.00
2022-09-01T04:39:24.332Z,100.00
2022-09-01T04:41:52.703Z,100.00
2022-09-01T04:44:20.918Z,100.00
2022-09-01T04:46:50.655Z,100.00
2022-09-01T04:49:22.586Z,100.00
2022-09-01T04:51:54.425Z,100.00
2022-09-01T04:54:24.898Z,100.00
2022-09-01T04:56:55.066Z,100.00
2022-09-01T04:59:27.212Z,100.00
2022-09-01T05:01:55.671Z,100.00
2022-09-01T05:04:27.492Z,100.00
2022-09-01T05:07:01.165Z,100.00
2022-09-01T05:09:30.412Z,100.00
2022-09-01T05:12:11.014Z,100.00
2022-09-01T05:14:42.545Z,100.00
2022-09-01T05:17:12.050Z,100.00
2022-09-01T05:19:43.196Z,100.00
2022-09-01T05:22:13.256Z,100.00
2022-09-01T05:24:42.255Z,100.00
2022-09-01T05:27:12.382Z,100.00
2022-09-01T05:29:41.739Z,100.00
2022-09-01T05:32:10.251Z,100.00
2022-09-01T05:34:39.100Z,100.00
2022-09-01T05:37:08.851Z,100.00
2022-09-01T05:39:39.040Z,100.00
2022-09-01T05:42:08.540Z,100.00
2022-09-01T05:44:37.103Z,100.00
2022-09-01T05:47:06.542Z,100.00
2022-09-01T05:49:34.871Z,100.00
2022-09-01T05:52:03.410Z,100.00
2022-09-01T05:54:32.594Z,100.00
2022-09-01T05:57:23.347Z,100.00
2022-09-01T05:59:54.047Z,100.00
2022-09-01T06:02:23.147Z,100.00
2022-09-01T06:04:52.992Z,100.00
2022-09-01T06:07:25.235Z,100.00
2022-09-01T06:09:54.120Z,100.00
2022-09-01T06:12:25.021Z,100.00
2022-09-01T06:14:55.077Z,100.00
2022-09-01T06:17:25.931Z,100.00
2022-09-01T06:19:56.275Z,100.00
2022-09-01T06:22:26.309Z,100.00
2022-09-01T06:24:58.248Z,100.00
2022-09-01T06:27:31.320Z,100.00
2022-09-01T06:30:00.092Z,100.00
2022-09-01T06:32:37.028Z,100.00
2022-09-01T06:35:08.663Z,100.00
2022-09-01T06:37:38.264Z,100.00
2022-09-01T06:40:10.711Z,100.00
2022-09-01T06:42:41.786Z,100.00
2022-09-01T06:45:11.673Z,100.00
2022-09-01T06:47:40.485Z,100.00
2022-09-01T06:50:09.160Z,100.00
2022-09-01T06:55:34.673Z,100.00
2022-09-01T06:58:06.584Z,100.00
2022-09-01T07:00:41.940Z,100.00
2022-09-01T07:03:11.673Z,100.00
2022-09-01T07:08:29.078Z,100.00
2022-09-01T07:16:51.778Z,100.00
2022-09-01T07:19:21.624Z,100.00
2022-09-01T07:24:40.141Z,100.00
2022-09-01T07:27:09.563Z,100.00
2022-09-01T07:29:41.628Z,100.00
2022-09-01T07:38:47.809Z,100.00
2022-09-01T07:42:31.732Z,100.00
2022-09-01T07:43:32.672Z,100.00
2022-09-01T07:49:29.270Z,100.00
2022-09-01T07:51:45.561Z,100.00
2022-09-01T07:54:14.224Z,100.00
2022-09-01T07:56:42.759Z,100.00
2022-09-01T07:59:14.760Z,100.00
2022-09-01T08:01:45.297Z,100.00
2022-09-01T08:04:13.787Z,100.00
2022-09-01T08:06:42.117Z,100.00
2022-09-01T08:09:27.390Z,100.00
2022-09-01T08:12:02.705Z,100.00
2022-09-01T08:14:34.288Z,100.00
2022-09-01T08:19:54.475Z,100.00
2022-09-01T08:22:25.275Z,100.00
2022-09-01T08:24:54.708Z,100.00
2022-09-01T08:27:23.421Z,100.00
2022-09-01T08:29:51.613Z,100.00
2022-09-01T08:32:22.542Z,100.00
2022-09-01T08:34:50.955Z,100.00
2022-09-01T08:37:19.808Z,100.00
2022-09-01T08:39:49.486Z,100.00
2022-09-01T08:42:27.041Z,100.00
2022-09-01T08:45:09.696Z,100.00
2022-09-01T08:47:55.920Z,100.00
2022-09-01T08:50:27.432Z,100.00
2022-09-01T08:53:09.721Z,100.00
2022-09-01T08:55:44.955Z,100.00
2022-09-01T08:58:17.107Z,100.00
2022-09-01T09:00:54.892Z,100.00
2022-09-01T09:03:48.208Z,100.00
2022-09-01T09:06:22.931Z,100.00
2022-09-01T09:08:58.936Z,100.00
2022-09-01T09:11:51.926Z,100.00
2022-09-01T09:14:38.544Z,100.00
2022-09-01T09:17:06.902Z,100.00
2022-09-01T09:19:39.608Z,100.00
2022-09-01T09:22:11.516Z,100.00
2022-09-01T09:24:52.331Z,100.00
2022-09-01T09:27:23.106Z,100.00
2022-09-01T09:29:53.493Z,100.00
2022-09-01T09:32:28.075Z,100.00
2022-09-01T09:35:20.287Z,100.00
2022-09-01T09:37:49.310Z,100.00
2022-09-01T09:40:20.432Z,100.00
2022-09-01T09:43:05.324Z,100.00
2022-09-01T09:45:35.640Z,100.00
2022-09-01T09:48:10.771Z,100.00
2022-09-01T09:50:44.024Z,100.00
2022-09-01T09:53:16.342Z,100.00
2022-09-01T09:55:56.200Z,100.00
2022-09-01T09:58:26.749Z,100.00
2022-09-01T10:01:17.305Z,100.00
2022-09-01T10:03:49.846Z,100.00
2022-09-01T10:06:34.034Z,100.00
2022-09-01T10:09:05.235Z,100.00
2022-09-01T10:11:41.389Z,100.00
2022-09-01T10:14:35.790Z,100.00
2022-09-01T10:17:09.680Z,100.00
2022-09-01T10:19:42.058Z,100.00
2022-09-01T10:22:15.200Z,100.00
2022-09-01T10:24:45.855Z,100.00
2022-09-01T10:27:21.763Z,100.00
2022-09-01T10:32:54.249Z,100.00
2022-09-01T10:35:28.098Z,100.00
2022-09-01T10:38:01.448Z,100.00
2022-09-01T10:40:48.931Z,100.00
2022-09-01T10:43:41.073Z,100.00
2022-09-01T10:46:50.402Z,100.00
2022-09-01T10:49:38.481Z,100.00
2022-09-01T10:52:12.956Z,100.00
2022-09-01T10:54:57.212Z,100.00
2022-09-01T10:57:43.418Z,100.00
2022-09-01T11:03:52.002Z,100.00
2022-09-01T11:06:38.849Z,100.00
2022-09-01T11:09:18.570Z,100.00
2022-09-01T11:12:02.005Z,100.00
2022-09-01T11:14:35.687Z,100.00
2022-09-01T11:17:14.416Z,100.00
2022-09-01T11:19:45.754Z,100.00
2022-09-01T11:22:26.635Z,100.00
2022-09-01T11:25:22.540Z,100.00
2022-09-01T11:28:01.300Z,100.00
2022-09-01T11:30:52.043Z,100.00
2022-09-01T11:33:39.939Z,100.00
2022-09-01T11:36:15.941Z,97.90
2022-09-01T11:38:51.278Z,74.37
2022-09-01T11:41:25.457Z,64.08
2022-09-01T11:43:58.980Z,63.17
2022-09-01T11:46:29.935Z,60.83
2022-09-01T11:48:59.109Z,62.01
2022-09-01T11:51:27.483Z,62.03
2022-09-01T11:54:01.627Z,60.23
2022-09-01T11:56:30.300Z,61.60
2022-09-01T11:58:59.997Z,60.01
2022-09-01T12:01:34.385Z,58.79
2022-09-01T12:04:22.329Z,56.50
2022-09-01T12:06:59.075Z,58.13
2022-09-01T12:09:34.764Z,56.52
2022-09-01T12:12:03.963Z,54.61
2022-09-01T12:14:55.034Z,52.36
2022-09-01T12:17:22.467Z,52.44
2022-09-01T12:19:51.028Z,52.13
2022-09-01T12:22:21.574Z,50.25
2022-09-01T12:24:51.836Z,47.44
2022-09-01T12:27:20.936Z,47.32
2022-09-01T12:29:51.440Z,48.21
2022-09-01T12:32:20.427Z,48.48
2022-09-01T12:35:01.481Z,48.34
2022-09-01T12:37:30.925Z,46.41
2022-09-01T12:40:00.401Z,44.58
2022-09-01T12:42:41.115Z,44.87
2022-09-01T12:45:14.309Z,45.21
2022-09-01T12:47:51.102Z,45.32
2022-09-01T12:50:45.932Z,45.87
2022-09-01T12:53:30.356Z,44.31
2022-09-01T12:56:21.302Z,44.93
2022-09-01T12:58:54.470Z,44.45
2022-09-01T13:01:28.872Z,43.98
2022-09-01T13:04:17.704Z,42.28
2022-09-01T13:06:46.160Z,42.88
2022-09-01T13:09:14.456Z,41.86
2022-09-01T13:14:32.338Z,42.24
2022-09-01T13:17:02.306Z,43.43
2022-09-01T13:19:30.885Z,42.32
2022-09-01T13:21:59.620Z,43.27
2022-09-01T13:24:30.450Z,44.39
2022-09-01T13:29:48.955Z,43.78
2022-09-01T13:32:22.341Z,43.63
2022-09-01T13:34:52.606Z,43.26
2022-09-01T13:37:21.538Z,43.25
2022-09-01T13:39:50.407Z,42.79
2022-09-01T13:42:19.116Z,43.85
2022-09-01T13:44:49.642Z,42.90
2022-09-01T13:47:29.176Z,42.73
2022-09-01T13:50:07.270Z,42.03
2022-09-01T13:52:37.109Z,42.35
2022-09-01T13:55:06.624Z,42.04
2022-09-01T13:57:36.321Z,42.18
2022-09-01T14:00:10.837Z,42.43
2022-09-01T14:02:41.260Z,41.94
2022-09-01T14:05:10.325Z,42.67
2022-09-01T14:07:38.690Z,41.95
2022-09-01T14:10:08.982Z,41.23
2022-09-01T14:12:37.544Z,42.04
2022-09-01T14:15:12.049Z,40.69
2022-09-01T14:17:44.802Z,41.80
2022-09-01T14:20:15.896Z,42.17
2022-09-01T14:22:44.186Z,42.47
2022-09-01T14:25:12.775Z,41.27
2022-09-01T14:27:42.668Z,41.55
2022-09-01T14:30:15.900Z,42.31
2022-09-01T14:32:45.627Z,42.25
2022-09-01T14:35:15.117Z,41.05
2022-09-01T14:37:44.058Z,41.44
2022-09-01T14:40:16.778Z,40.29
2022-09-01T14:42:49.360Z,40.44
2022-09-01T14:45:19.663Z,40.10
2022-09-01T14:47:51.013Z,39.59
2022-09-01T14:50:22.916Z,40.44
2022-09-01T14:52:54.299Z,40.12
2022-09-01T14:55:23.515Z,39.64
2022-09-01T14:57:52.249Z,39.36
2022-09-01T15:00:20.782Z,39.09
2022-09-01T15:02:50.217Z,39.21
2022-09-01T15:05:18.628Z,39.00
2022-09-01T15:07:49.441Z,37.37
2022-09-01T15:10:25.090Z,38.45
2022-09-01T15:12:55.212Z,36.90
2022-09-01T15:15:24.570Z,38.15
2022-09-01T15:17:54.698Z,36.92
2022-09-01T15:20:41.680Z,37.51
2022-09-01T15:23:11.111Z,37.36
2022-09-01T15:25:39.476Z,37.39
2022-09-01T15:28:07.631Z,37.51
2022-09-01T15:30:36.995Z,37.26
2022-09-01T15:33:09.872Z,37.88
2022-09-01T15:35:41.494Z,37.21
2022-09-01T15:38:10.369Z,37.18
2022-09-01T15:40:42.770Z,37.57
2022-09-01T15:43:11.642Z,37.72
2022-09-01T15:45:40.463Z,37.69
2022-09-01T15:48:10.096Z,38.48
2022-09-01T15:50:38.649Z,37.89
2022-09-01T15:53:12.009Z,37.98
2022-09-01T15:55:43.131Z,38.39
2022-09-01T15:58:12.949Z,38.71
2022-09-01T16:00:42.306Z,38.32
2022-09-01T16:03:12.161Z,38.40
2022-09-01T16:05:41.961Z,39.01
2022-09-01T16:08:11.644Z,39.28
2022-09-01T16:10:42.291Z,39.70
2022-09-01T16:13:10.867Z,39.96
2022-09-01T16:15:47.366Z,39.31
2022-09-01T16:18:29.994Z,39.87
2022-09-01T16:21:04.900Z,40.08
2022-09-01T16:23:41.553Z,40.64
2022-09-01T16:26:11.807Z,40.93
2022-09-01T16:28:40.640Z,41.53
2022-09-01T16:31:13.268Z,42.07
2022-09-01T16:33:49.199Z,42.58
2022-09-01T16:36:34.715Z,42.33
2022-09-01T16:39:14.093Z,42.39
2022-09-01T16:41:54.220Z,43.16
2022-09-01T16:44:33.421Z,42.76
2022-09-01T16:47:09.211Z,43.58
2022-09-01T16:49:47.718Z,43.83
2022-09-01T16:52:25.395Z,44.33
2022-09-01T16:55:06.678Z,44.21
2022-09-01T16:57:47.192Z,44.06
2022-09-01T17:00:19.115Z,44.12
2022-09-01T17:02:52.776Z,44.76
2022-09-01T17:05:30.100Z,45.04
2022-09-01T17:08:07.759Z,44.77
2022-09-01T17:10:42.650Z,44.70
2022-09-01T17:13:20.474Z,45.53
2022-09-01T17:15:56.022Z,46.56
2022-09-01T17:18:33.624Z,46.57
2022-09-01T17:21:12.409Z,47.14
2022-09-01T17:23:48.807Z,47.09
2022-09-01T17:26:23.148Z,47.69
2022-09-01T17:28:56.543Z,48.12
2022-09-01T17:31:38.674Z,48.14
2022-09-01T17:34:18.737Z,48.31
2022-09-01T17:37:01.987Z,49.10
2022-09-01T17:39:36.496Z,49.50
2022-09-01T17:42:11.377Z,50.36
2022-09-01T17:44:46.291Z,51.02
2022-09-01T17:47:21.394Z,50.64
2022-09-01T17:49:59.087Z,51.33
2022-09-01T17:52:45.252Z,51.27
2022-09-01T17:55:37.695Z,51.51
2022-09-01T17:58:13.358Z,52.05
2022-09-01T18:00:49.965Z,51.75
2022-09-01T18:03:31.886Z,51.47
2022-09-01T18:06:05.511Z,51.78
2022-09-01T18:08:40.701Z,51.88
2022-09-01T18:11:12.612Z,52.26
2022-09-01T18:13:53.281Z,51.70
2022-09-01T18:16:25.668Z,52.87
2022-09-01T18:18:54.528Z,52.88
2022-09-01T18:21:26.496Z,52.65
2022-09-01T18:24:03.243Z,53.27
2022-09-01T18:26:35.339Z,52.22
2022-09-01T18:29:06.191Z,53.22
2022-09-01T18:32:00.153Z,54.58
2022-09-01T18:34:44.889Z,54.50
2022-09-01T18:37:24.254Z,54.34
2022-09-01T18:40:03.782Z,56.19
2022-09-01T18:42:38.734Z,59.89
2022-09-01T18:45:18.163Z,62.29
2022-09-01T18:47:57.403Z,58.86
2022-09-01T18:50:34.321Z,59.53
2022-09-01T18:53:14.255Z,59.97
2022-09-01T18:55:51.478Z,57.24
2022-09-01T18:58:36.140Z,57.89
2022-09-01T19:01:07.677Z,57.41
2022-09-01T19:03:41.495Z,57.08
2022-09-01T19:06:25.304Z,57.27
2022-09-01T19:09:04.740Z,58.54
2022-09-01T19:11:43.616Z,58.06
2022-09-01T19:14:20.765Z,59.17
2022-09-01T19:17:03.047Z,60.11
2022-09-01T19:19:40.017Z,62.44
2022-09-01T19:22:09.515Z,64.58
2022-09-01T19:24:44.550Z,68.42
2022-09-01T19:27:15.933Z,70.18
2022-09-01T19:29:52.417Z,71.80
2022-09-01T19:32:22.537Z,71.60
2022-09-01T19:34:54.392Z,71.78
2022-09-01T19:37:22.880Z,72.76
2022-09-01T19:39:54.355Z,74.78
2022-09-01T19:42:29.710Z,76.21
2022-09-01T19:45:07.030Z,78.38
2022-09-01T19:47:42.894Z,82.96
2022-09-01T19:50:20.124Z,82.36
2022-09-01T19:52:55.571Z,83.96
2022-09-01T19:55:31.362Z,85.86
2022-09-01T19:58:06.019Z,87.62
2022-09-01T20:00:52.488Z,85.83
2022-09-01T20:03:27.353Z,87.48
2022-09-01T20:06:01.192Z,87.99
2022-09-01T20:08:38.668Z,89.79
2022-09-01T20:11:14.694Z,87.88
2022-09-01T20:14:13.059Z,85.71
2022-09-01T20:16:45.872Z,90.18
2022-09-01T20:19:19.910Z,89.17
2022-09-01T20:21:49.667Z,89.35
2022-09-01T20:24:32.914Z,88.22
2022-09-01T20:27:05.353Z,88.34
2022-09-01T20:29:44.435Z,88.47
2022-09-01T20:32:27.628Z,87.18
2022-09-01T20:34:59.681Z,87.83
2022-09-01T20:37:33.745Z,85.25
2022-09-01T20:40:06.315Z,82.96
2022-09-01T20:42:47.497Z,83.76
2022-09-01T20:45:19.323Z,84.04
2022-09-01T20:47:52.472Z,86.50
2022-09-01T20:50:21.615Z,83.06
2022-09-01T20:53:02.667Z,82.49
2022-09-01T20:55:38.709Z,81.59
2022-09-01T20:58:22.853Z,80.86
2022-09-01T21:01:00.953Z,81.75
2022-09-01T21:03:38.682Z,81.84
2022-09-01T21:06:20.420Z,76.83
2022-09-01T21:08:54.257Z,76.31
2022-09-01T21:11:32.580Z,74.97
2022-09-01T21:14:14.878Z,73.66
2022-09-01T21:16:58.625Z,73.87
2022-09-01T21:19:32.032Z,71.63
2022-09-01T21:22:06.322Z,75.02
2022-09-01T21:24:34.960Z,73.86
2022-09-01T21:27:07.627Z,71.90
2022-09-01T21:29:53.631Z,71.86
2022-09-01T21:32:23.496Z,72.17
2022-09-01T21:34:53.148Z,70.69
2022-09-01T21:37:23.676Z,71.67
2022-09-01T21:39:53.092Z,70.31
2022-09-01T21:42:23.687Z,69.36
2022-09-01T21:44:54.352Z,67.90
2022-09-01T21:47:24.628Z,67.04
2022-09-01T21:49:52.864Z,66.56
2022-09-01T21:52:21.278Z,65.45
2022-09-01T21:54:49.639Z,65.33
2022-09-01T21:57:17.808Z,64.93
2022-09-01T21:59:45.914Z,63.50
2022-09-01T22:02:14.197Z,63.98
2022-09-01T22:04:44.286Z,64.46
2022-09-01T22:07:18.671Z,62.79
2022-09-01T22:09:47.145Z,62.15
2022-09-01T22:12:15.912Z,62.82
2022-09-01T22:14:44.255Z,62.36
2022-09-01T22:17:12.809Z,62.72
2022-09-01T22:19:41.013Z,62.23
2022-09-01T22:22:10.650Z,62.62
2022-09-01T22:24:39.119Z,62.97
2022-09-01T22:27:07.561Z,64.39
2022-09-01T22:29:36.056Z,64.05
2022-09-01T22:32:04.711Z,64.35
2022-09-01T22:34:34.049Z,64.08
2022-09-01T22:37:02.608Z,64.75
2022-09-01T22:39:32.149Z,63.90
2022-09-01T22:42:00.256Z,62.29
2022-09-01T22:44:28.359Z,63.35
2022-09-01T22:46:56.468Z,61.96
2022-09-01T22:49:24.613Z,61.03
2022-09-01T22:51:52.690Z,61.90
2022-09-01T22:54:20.886Z,60.92
2022-09-01T22:56:52.524Z,60.70
2022-09-01T22:59:22.627Z,59.83
2022-09-01T23:01:51.460Z,60.83
2022-09-01T23:04:19.669Z,60.77
2022-09-01T23:06:50.781Z,59.97
2022-09-01T23:09:20.828Z,59.34
2022-09-01T23:11:50.784Z,59.50
2022-09-01T23:14:19.528Z,59.19
2022-09-01T23:16:51.119Z,59.38
2022-09-01T23:19:19.804Z,58.57
2022-09-01T23:21:48.460Z,58.44
2022-09-01T23:24:16.635Z,58.36
2022-09-01T23:26:48.326Z,57.64
2022-09-01T23:29:18.446Z,57.89
2022-09-01T23:31:46.946Z,57.98
2022-09-01T23:34:16.737Z,58.12
2022-09-01T23:36:44.937Z,57.97
2022-09-01T23:39:13.016Z,58.24
2022-09-01T23:41:41.566Z,58.00
2022-09-01T23:44:12.094Z,57.51
2022-09-01T23:46:44.159Z,57.39
2022-09-01T23:49:14.472Z,57.02
2022-09-01T23:51:43.111Z,56.79
2022-09-01T23:54:11.953Z,57.14
2022-09-01T23:56:40.621Z,56.84
2022-09-01T23:59:09.208Z,56.70
